sensor_id;sensor_type;location;lat;lon;timestamp;P1;durP1;ratioP1;P2;durP2;ratioP2
70796;SDS011;59398;52.170;5.386;2022-09-09T00:04:30;3.28;;;0.90;;
70796;SDS011;59398;52.170;5.386;2022-09-09T00:07:04;2.55;;;0.90;;
70796;SDS011;59398;52.170;5.386;2022-09-09T00:15:19;3.15;;;1.00;;
70796;SDS011;59398;52.170;5.386;2022-09-09T00:18:31;3.90;;;1.00;;
70796;SDS011;59398;52.170;5.386;2022-09-09T00:21:02;3.75;;;1.00;;
70796;SDS011;59398;52.170;5.386;2022-09-09T00:23:34;3.72;;;1.00;;
70796;SDS011;59398;52.170;5.386;2022-09-09T00:26:11;3.28;;;1.00;;
70796;SDS011;59398;52.170;5.386;2022-09-09T00:31:38;3.55;;;1.00;;
70796;SDS011;59398;52.170;5.386;2022-09-09T00:34:09;1.38;;;0.80;;
70796;SDS011;59398;52.170;5.386;2022-09-09T00:36:49;5.45;;;1.10;;
70796;SDS011;59398;52.170;5.386;2022-09-09T00:39:32;3.58;;;1.00;;
70796;SDS011;59398;52.170;5.386;2022-09-09T00:44:51;2.58;;;0.95;;
70796;SDS011;59398;52.170;5.386;2022-09-09T00:52:47;2.83;;;1.10;;
70796;SDS011;59398;52.170;5.386;2022-09-09T00:58:07;3.28;;;1.23;;
70796;SDS011;59398;52.170;5.386;2022-09-09T01:00:44;2.88;;;1.08;;
70796;SDS011;59398;52.170;5.386;2022-09-09T01:06:16;3.55;;;1.20;;
70796;SDS011;59398;52.170;5.386;2022-09-09T01:22:55;4.75;;;1.33;;
70796;SDS011;59398;52.170;5.386;2022-09-09T01:26:35;5.07;;;1.38;;
70796;SDS011;59398;52.170;5.386;2022-09-09T01:28:39;4.20;;;1.02;;
70796;SDS011;59398;52.170;5.386;2022-09-09T01:31:14;5.22;;;1.15;;
70796;SDS011;59398;52.170;5.386;2022-09-09T01:33:46;2.88;;;1.20;;
70796;SDS011;59398;52.170;5.386;2022-09-09T01:38:51;3.00;;;1.23;;
70796;SDS011;59398;52.170;5.386;2022-09-09T01:41:19;6.18;;;1.50;;
70796;SDS011;59398;52.170;5.386;2022-09-09T01:44:13;3.03;;;1.00;;
70796;SDS011;59398;52.170;5.386;2022-09-09T01:46:43;3.85;;;1.20;;
70796;SDS011;59398;52.170;5.386;2022-09-09T01:49:16;2.75;;;1.08;;
70796;SDS011;59398;52.170;5.386;2022-09-09T01:54:13;3.90;;;1.20;;
70796;SDS011;59398;52.170;5.386;2022-09-09T01:56:47;4.85;;;1.27;;
70796;SDS011;59398;52.170;5.386;2022-09-09T02:02:26;3.00;;;1.15;;
70796;SDS011;59398;52.170;5.386;2022-09-09T02:07:53;4.28;;;1.30;;
70796;SDS011;59398;52.170;5.386;2022-09-09T02:13:45;5.03;;;1.45;;
70796;SDS011;59398;52.170;5.386;2022-09-09T02:16:21;3.80;;;1.40;;
70796;SDS011;59398;52.170;5.386;2022-09-09T02:19:12;5.13;;;1.30;;
70796;SDS011;59398;52.170;5.386;2022-09-09T02:21:59;3.08;;;1.17;;
70796;SDS011;59398;52.170;5.386;2022-09-09T02:24:28;5.38;;;1.45;;
70796;SDS011;59398;52.170;5.386;2022-09-09T02:27:10;3.88;;;1.40;;
70796;SDS011;59398;52.170;5.386;2022-09-09T02:29:40;3.35;;;1.30;;
70796;SDS011;59398;52.170;5.386;2022-09-09T02:32:14;5.05;;;1.50;;
70796;SDS011;59398;52.170;5.386;2022-09-09T02:34:44;4.35;;;1.67;;
70796;SDS011;59398;52.170;5.386;2022-09-09T02:37:18;3.92;;;1.50;;
70796;SDS011;59398;52.170;5.386;2022-09-09T02:39:51;6.25;;;1.70;;
70796;SDS011;59398;52.170;5.386;2022-09-09T02:42:21;5.35;;;1.52;;
70796;SDS011;59398;52.170;5.386;2022-09-09T02:44:54;3.35;;;1.48;;
70796;SDS011;59398;52.170;5.386;2022-09-09T02:47:38;4.45;;;1.50;;
70796;SDS011;59398;52.170;5.386;2022-09-09T02:50:32;4.55;;;1.60;;
70796;SDS011;59398;52.170;5.386;2022-09-09T02:53:11;5.90;;;2.00;;
70796;SDS011;59398;52.170;5.386;2022-09-09T02:55:46;5.30;;;1.65;;
70796;SDS011;59398;52.170;5.386;2022-09-09T02:58:19;4.50;;;1.50;;
70796;SDS011;59398;52.170;5.386;2022-09-09T03:00:57;4.18;;;1.63;;
70796;SDS011;59398;52.170;5.386;2022-09-09T03:03:25;4.47;;;1.60;;
70796;SDS011;59398;52.170;5.386;2022-09-09T03:08:21;5.43;;;1.67;;
70796;SDS011;59398;52.170;5.386;2022-09-09T03:10:48;5.25;;;1.63;;
70796;SDS011;59398;52.170;5.386;2022-09-09T03:13:15;4.72;;;1.52;;
70796;SDS011;59398;52.170;5.386;2022-09-09T03:15:42;3.72;;;1.55;;
70796;SDS011;59398;52.170;5.386;2022-09-09T03:18:14;5.50;;;1.70;;
70796;SDS011;59398;52.170;5.386;2022-09-09T03:20:41;5.00;;;1.80;;
70796;SDS011;59398;52.170;5.386;2022-09-09T03:23:09;5.35;;;1.85;;
70796;SDS011;59398;52.170;5.386;2022-09-09T03:25:49;4.53;;;1.70;;
70796;SDS011;59398;52.170;5.386;2022-09-09T03:28:24;5.68;;;1.77;;
70796;SDS011;59398;52.170;5.386;2022-09-09T03:31:01;5.80;;;2.03;;
70796;SDS011;59398;52.170;5.386;2022-09-09T03:33:34;6.38;;;2.00;;
70796;SDS011;59398;52.170;5.386;2022-09-09T03:36:04;8.05;;;2.10;;
70796;SDS011;59398;52.170;5.386;2022-09-09T03:38:38;4.30;;;1.88;;
70796;SDS011;59398;52.170;5.386;2022-09-09T03:41:06;5.63;;;1.98;;
70796;SDS011;59398;52.170;5.386;2022-09-09T03:43:34;6.70;;;2.10;;
70796;SDS011;59398;52.170;5.386;2022-09-09T03:46:01;6.93;;;2.13;;
70796;SDS011;59398;52.170;5.386;2022-09-09T03:48:29;5.57;;;2.30;;
70796;SDS011;59398;52.170;5.386;2022-09-09T03:50:57;4.53;;;1.83;;
70796;SDS011;59398;52.170;5.386;2022-09-09T03:53:28;5.97;;;2.10;;
70796;SDS011;59398;52.170;5.386;2022-09-09T03:55:56;5.30;;;2.03;;
70796;SDS011;59398;52.170;5.386;2022-09-09T03:58:27;7.30;;;2.20;;
70796;SDS011;59398;52.170;5.386;2022-09-09T04:01:04;5.13;;;2.00;;
70796;SDS011;59398;52.170;5.386;2022-09-09T04:03:32;5.22;;;2.13;;
70796;SDS011;59398;52.170;5.386;2022-09-09T04:06:00;5.50;;;2.20;;
70796;SDS011;59398;52.170;5.386;2022-09-09T04:08:30;5.40;;;1.98;;
70796;SDS011;59398;52.170;5.386;2022-09-09T04:10:59;6.47;;;2.13;;
70796;SDS011;59398;52.170;5.386;2022-09-09T04:13:33;5.90;;;1.90;;
70796;SDS011;59398;52.170;5.386;2022-09-09T04:16:01;6.63;;;2.22;;
70796;SDS011;59398;52.170;5.386;2022-09-09T04:18:32;6.95;;;2.05;;
70796;SDS011;59398;52.170;5.386;2022-09-09T04:21:01;4.90;;;2.03;;
70796;SDS011;59398;52.170;5.386;2022-09-09T04:23:31;5.32;;;2.10;;
70796;SDS011;59398;52.170;5.386;2022-09-09T04:26:00;6.43;;;2.05;;
70796;SDS011;59398;52.170;5.386;2022-09-09T04:28:30;6.57;;;2.15;;
70796;SDS011;59398;52.170;5.386;2022-09-09T04:31:06;5.05;;;1.90;;
70796;SDS011;59398;52.170;5.386;2022-09-09T04:33:39;5.50;;;2.20;;
70796;SDS011;59398;52.170;5.386;2022-09-09T04:36:07;5.90;;;2.17;;
70796;SDS011;59398;52.170;5.386;2022-09-09T04:38:35;5.90;;;1.95;;
70796;SDS011;59398;52.170;5.386;2022-09-09T04:41:03;7.20;;;2.22;;
70796;SDS011;59398;52.170;5.386;2022-09-09T04:43:31;5.70;;;2.00;;
70796;SDS011;59398;52.170;5.386;2022-09-09T04:46:01;6.93;;;2.20;;
70796;SDS011;59398;52.170;5.386;2022-09-09T04:48:29;6.57;;;2.42;;
70796;SDS011;59398;52.170;5.386;2022-09-09T04:51:00;6.63;;;2.38;;
70796;SDS011;59398;52.170;5.386;2022-09-09T04:53:32;6.88;;;2.40;;
70796;SDS011;59398;52.170;5.386;2022-09-09T04:56:01;5.78;;;1.98;;
70796;SDS011;59398;52.170;5.386;2022-09-09T04:58:36;5.32;;;1.90;;
70796;SDS011;59398;52.170;5.386;2022-09-09T05:01:08;6.30;;;2.20;;
70796;SDS011;59398;52.170;5.386;2022-09-09T05:03:47;6.32;;;2.00;;
70796;SDS011;59398;52.170;5.386;2022-09-09T05:06:20;5.90;;;1.98;;
70796;SDS011;59398;52.170;5.386;2022-09-09T05:08:52;7.50;;;2.50;;
70796;SDS011;59398;52.170;5.386;2022-09-09T05:11:27;8.00;;;2.28;;
70796;SDS011;59398;52.170;5.386;2022-09-09T05:14:07;9.30;;;2.20;;
70796;SDS011;59398;52.170;5.386;2022-09-09T05:16:34;5.78;;;1.70;;
70796;SDS011;59398;52.170;5.386;2022-09-09T05:19:01;6.95;;;1.83;;
70796;SDS011;59398;52.170;5.386;2022-09-09T05:21:40;7.18;;;2.00;;
70796;SDS011;59398;52.170;5.386;2022-09-09T05:24:07;6.47;;;2.08;;
70796;SDS011;59398;52.170;5.386;2022-09-09T05:26:35;8.05;;;1.92;;
70796;SDS011;59398;52.170;5.386;2022-09-09T05:29:02;7.60;;;2.00;;
70796;SDS011;59398;52.170;5.386;2022-09-09T05:31:30;5.75;;;1.98;;
70796;SDS011;59398;52.170;5.386;2022-09-09T05:34:01;5.97;;;1.83;;
70796;SDS011;59398;52.170;5.386;2022-09-09T05:36:28;8.85;;;2.40;;
70796;SDS011;59398;52.170;5.386;2022-09-09T05:38:56;9.90;;;1.98;;
70796;SDS011;59398;52.170;5.386;2022-09-09T05:41:25;10.05;;;2.67;;
70796;SDS011;59398;52.170;5.386;2022-09-09T05:43:54;5.95;;;2.00;;
70796;SDS011;59398;52.170;5.386;2022-09-09T05:46:23;7.43;;;2.40;;
70796;SDS011;59398;52.170;5.386;2022-09-09T05:48:53;4.57;;;1.90;;
70796;SDS011;59398;52.170;5.386;2022-09-09T05:51:29;7.30;;;2.03;;
70796;SDS011;59398;52.170;5.386;2022-09-09T05:54:05;6.60;;;2.00;;
70796;SDS011;59398;52.170;5.386;2022-09-09T05:56:36;6.18;;;1.98;;
70796;SDS011;59398;52.170;5.386;2022-09-09T05:59:06;6.45;;;1.77;;
70796;SDS011;59398;52.170;5.386;2022-09-09T06:01:34;8.30;;;2.00;;
70796;SDS011;59398;52.170;5.386;2022-09-09T06:04:08;6.43;;;1.75;;
70796;SDS011;59398;52.170;5.386;2022-09-09T06:06:38;7.70;;;2.00;;
70796;SDS011;59398;52.170;5.386;2022-09-09T06:09:11;7.68;;;2.00;;
70796;SDS011;59398;52.170;5.386;2022-09-09T06:11:40;5.28;;;1.80;;
70796;SDS011;59398;52.170;5.386;2022-09-09T06:14:08;5.53;;;1.80;;
70796;SDS011;59398;52.170;5.386;2022-09-09T06:16:37;6.55;;;1.88;;
70796;SDS011;59398;52.170;5.386;2022-09-09T06:19:14;5.22;;;1.80;;
70796;SDS011;59398;52.170;5.386;2022-09-09T06:21:41;6.68;;;2.00;;
70796;SDS011;59398;52.170;5.386;2022-09-09T06:24:11;7.32;;;2.08;;
70796;SDS011;59398;52.170;5.386;2022-09-09T06:26:40;6.07;;;2.00;;
70796;SDS011;59398;52.170;5.386;2022-09-09T06:29:10;8.35;;;2.10;;
70796;SDS011;59398;52.170;5.386;2022-09-09T06:31:38;5.38;;;1.80;;
70796;SDS011;59398;52.170;5.386;2022-09-09T06:34:12;8.55;;;2.17;;
70796;SDS011;59398;52.170;5.386;2022-09-09T06:36:43;10.82;;;1.85;;
70796;SDS011;59398;52.170;5.386;2022-09-09T06:39:12;8.88;;;1.75;;
70796;SDS011;59398;52.170;5.386;2022-09-09T06:41:41;7.38;;;1.98;;
70796;SDS011;59398;52.170;5.386;2022-09-09T06:44:29;9.75;;;1.95;;
70796;SDS011;59398;52.170;5.386;2022-09-09T06:47:04;5.60;;;1.85;;
70796;SDS011;59398;52.170;5.386;2022-09-09T06:49:32;7.80;;;2.60;;
70796;SDS011;59398;52.170;5.386;2022-09-09T06:52:01;7.93;;;1.80;;
70796;SDS011;59398;52.170;5.386;2022-09-09T06:54:28;6.82;;;2.08;;
70796;SDS011;59398;52.170;5.386;2022-09-09T06:56:55;7.97;;;1.80;;
70796;SDS011;59398;52.170;5.386;2022-09-09T06:59:23;6.05;;;1.60;;
70796;SDS011;59398;52.170;5.386;2022-09-09T07:01:53;6.85;;;1.80;;
70796;SDS011;59398;52.170;5.386;2022-09-09T07:04:22;8.13;;;1.80;;
70796;SDS011;59398;52.170;5.386;2022-09-09T07:06:49;7.70;;;1.80;;
70796;SDS011;59398;52.170;5.386;2022-09-09T07:09:23;7.25;;;2.00;;
70796;SDS011;59398;52.170;5.386;2022-09-09T07:11:52;7.30;;;1.90;;
70796;SDS011;59398;52.170;5.386;2022-09-09T07:14:22;7.68;;;1.90;;
70796;SDS011;59398;52.170;5.386;2022-09-09T07:17:01;5.82;;;1.90;;
70796;SDS011;59398;52.170;5.386;2022-09-09T07:19:34;7.10;;;1.70;;
70796;SDS011;59398;52.170;5.386;2022-09-09T07:22:03;6.45;;;2.00;;
70796;SDS011;59398;52.170;5.386;2022-09-09T07:24:31;7.68;;;1.88;;
70796;SDS011;59398;52.170;5.386;2022-09-09T07:26:58;8.55;;;2.00;;
70796;SDS011;59398;52.170;5.386;2022-09-09T07:29:26;8.30;;;1.98;;
70796;SDS011;59398;52.170;5.386;2022-09-09T07:31:53;8.15;;;2.08;;
70796;SDS011;59398;52.170;5.386;2022-09-09T07:34:28;9.23;;;1.88;;
70796;SDS011;59398;52.170;5.386;2022-09-09T07:36:56;8.77;;;2.00;;
70796;SDS011;59398;52.170;5.386;2022-09-09T07:39:24;8.25;;;1.77;;
70796;SDS011;59398;52.170;5.386;2022-09-09T07:41:53;7.40;;;1.98;;
70796;SDS011;59398;52.170;5.386;2022-09-09T07:47:17;7.68;;;2.20;;
70796;SDS011;59398;52.170;5.386;2022-09-09T07:49:46;10.00;;;2.20;;
70796;SDS011;59398;52.170;5.386;2022-09-09T07:52:20;9.65;;;2.15;;
70796;SDS011;59398;52.170;5.386;2022-09-09T07:54:52;9.93;;;2.10;;
70796;SDS011;59398;52.170;5.386;2022-09-09T07:57:19;10.27;;;2.03;;
70796;SDS011;59398;52.170;5.386;2022-09-09T07:59:49;9.25;;;2.42;;
70796;SDS011;59398;52.170;5.386;2022-09-09T08:02:17;6.55;;;2.03;;
70796;SDS011;59398;52.170;5.386;2022-09-09T08:04:44;8.63;;;2.20;;
70796;SDS011;59398;52.170;5.386;2022-09-09T08:07:12;10.45;;;2.25;;
70796;SDS011;59398;52.170;5.386;2022-09-09T08:09:46;8.65;;;2.22;;
70796;SDS011;59398;52.170;5.386;2022-09-09T08:12:27;10.48;;;2.20;;
70796;SDS011;59398;52.170;5.386;2022-09-09T08:14:54;9.93;;;2.40;;
70796;SDS011;59398;52.170;5.386;2022-09-09T08:17:24;8.88;;;2.50;;
70796;SDS011;59398;52.170;5.386;2022-09-09T08:19:52;8.35;;;2.08;;
70796;SDS011;59398;52.170;5.386;2022-09-09T08:22:24;9.25;;;1.90;;
70796;SDS011;59398;52.170;5.386;2022-09-09T08:24:51;7.45;;;2.13;;
70796;SDS011;59398;52.170;5.386;2022-09-09T08:27:18;7.93;;;2.22;;
70796;SDS011;59398;52.170;5.386;2022-09-09T08:29:46;7.72;;;1.88;;
70796;SDS011;59398;52.170;5.386;2022-09-09T08:32:13;12.95;;;2.20;;
70796;SDS011;59398;52.170;5.386;2022-09-09T08:34:44;9.30;;;2.65;;
70796;SDS011;59398;52.170;5.386;2022-09-09T08:37:17;6.35;;;1.77;;
70796;SDS011;59398;52.170;5.386;2022-09-09T08:39:49;6.22;;;1.85;;
70796;SDS011;59398;52.170;5.386;2022-09-09T08:42:27;7.50;;;2.03;;
70796;SDS011;59398;52.170;5.386;2022-09-09T08:45:22;6.35;;;1.90;;
70796;SDS011;59398;52.170;5.386;2022-09-09T08:48:13;7.07;;;2.10;;
70796;SDS011;59398;52.170;5.386;2022-09-09T08:50:53;7.95;;;1.85;;
70796;SDS011;59398;52.170;5.386;2022-09-09T08:53:39;7.20;;;1.85;;
70796;SDS011;59398;52.170;5.386;2022-09-09T08:56:14;12.23;;;2.90;;
70796;SDS011;59398;52.170;5.386;2022-09-09T08:58:53;6.65;;;1.83;;
70796;SDS011;59398;52.170;5.386;2022-09-09T09:07:17;7.05;;;1.70;;
70796;SDS011;59398;52.170;5.386;2022-09-09T09:13:07;8.13;;;2.10;;
70796;SDS011;59398;52.170;5.386;2022-09-09T09:16:19;6.13;;;2.00;;
70796;SDS011;59398;52.170;5.386;2022-09-09T09:18:49;8.15;;;1.70;;
70796;SDS011;59398;52.170;5.386;2022-09-09T09:23:59;9.25;;;2.05;;
70796;SDS011;59398;52.170;5.386;2022-09-09T09:26:31;8.25;;;2.00;;
70796;SDS011;59398;52.170;5.386;2022-09-09T09:29:10;8.35;;;1.75;;
70796;SDS011;59398;52.170;5.386;2022-09-09T09:34:27;12.07;;;2.20;;
70796;SDS011;59398;52.170;5.386;2022-09-09T09:36:56;7.55;;;1.83;;
70796;SDS011;59398;52.170;5.386;2022-09-09T09:39:29;8.50;;;1.90;;
70796;SDS011;59398;52.170;5.386;2022-09-09T09:42:24;8.25;;;1.98;;
70796;SDS011;59398;52.170;5.386;2022-09-09T09:44:54;7.93;;;1.95;;
70796;SDS011;59398;52.170;5.386;2022-09-09T09:47:25;6.93;;;1.95;;
70796;SDS011;59398;52.170;5.386;2022-09-09T09:50:16;8.80;;;2.00;;
70796;SDS011;59398;52.170;5.386;2022-09-09T09:52:54;8.07;;;2.03;;
70796;SDS011;59398;52.170;5.386;2022-09-09T09:55:24;10.07;;;2.00;;
70796;SDS011;59398;52.170;5.386;2022-09-09T09:57:52;10.73;;;2.13;;
70796;SDS011;59398;52.170;5.386;2022-09-09T10:00:20;8.60;;;2.70;;
70796;SDS011;59398;52.170;5.386;2022-09-09T10:03:00;12.73;;;2.15;;
70796;SDS011;59398;52.170;5.386;2022-09-09T10:05:31;10.20;;;2.47;;
70796;SDS011;59398;52.170;5.386;2022-09-09T10:08:12;15.85;;;2.60;;
70796;SDS011;59398;52.170;5.386;2022-09-09T10:16:21;11.82;;;2.00;;
70796;SDS011;59398;52.170;5.386;2022-09-09T10:19:05;8.95;;;2.47;;
70796;SDS011;59398;52.170;5.386;2022-09-09T10:21:52;11.45;;;2.10;;
70796;SDS011;59398;52.170;5.386;2022-09-09T10:27:36;10.82;;;2.28;;
70796;SDS011;59398;52.170;5.386;2022-09-09T10:30:44;10.52;;;2.13;;
70796;SDS011;59398;52.170;5.386;2022-09-09T10:33:16;7.22;;;2.00;;
70796;SDS011;59398;52.170;5.386;2022-09-09T10:41:18;7.78;;;2.00;;
70796;SDS011;59398;52.170;5.386;2022-09-09T10:47:34;7.43;;;2.10;;
70796;SDS011;59398;52.170;5.386;2022-09-09T10:50:23;7.95;;;2.25;;
70796;SDS011;59398;52.170;5.386;2022-09-09T10:56:06;9.07;;;2.35;;
70796;SDS011;59398;52.170;5.386;2022-09-09T10:59:00;7.00;;;1.75;;
70796;SDS011;59398;52.170;5.386;2022-09-09T11:01:33;9.10;;;1.92;;
70796;SDS011;59398;52.170;5.386;2022-09-09T11:04:25;8.07;;;2.15;;
70796;SDS011;59398;52.170;5.386;2022-09-09T11:07:00;7.25;;;1.90;;
70796;SDS011;59398;52.170;5.386;2022-09-09T11:09:49;9.15;;;2.17;;
70796;SDS011;59398;52.170;5.386;2022-09-09T11:12:19;8.85;;;2.33;;
70796;SDS011;59398;52.170;5.386;2022-09-09T11:14:51;7.72;;;2.00;;
70796;SDS011;59398;52.170;5.386;2022-09-09T11:17:26;9.80;;;2.13;;
70796;SDS011;59398;52.170;5.386;2022-09-09T11:20:04;7.13;;;1.98;;
70796;SDS011;59398;52.170;5.386;2022-09-09T11:22:37;7.25;;;2.10;;
70796;SDS011;59398;52.170;5.386;2022-09-09T11:36:05;7.68;;;2.05;;
70796;SDS011;59398;52.170;5.386;2022-09-09T11:38:47;6.93;;;2.00;;
70796;SDS011;59398;52.170;5.386;2022-09-09T11:41:39;9.05;;;2.10;;
70796;SDS011;59398;52.170;5.386;2022-09-09T11:44:16;9.40;;;2.10;;
70796;SDS011;59398;52.170;5.386;2022-09-09T11:46:52;7.40;;;2.22;;
70796;SDS011;59398;52.170;5.386;2022-09-09T11:49:39;7.55;;;2.03;;
70796;SDS011;59398;52.170;5.386;2022-09-09T11:52:18;7.93;;;1.88;;
70796;SDS011;59398;52.170;5.386;2022-09-09T11:58:05;11.90;;;2.00;;
70796;SDS011;59398;52.170;5.386;2022-09-09T12:00:42;8.38;;;2.75;;
70796;SDS011;59398;52.170;5.386;2022-09-09T12:06:20;7.38;;;1.85;;
70796;SDS011;59398;52.170;5.386;2022-09-09T12:08:56;7.40;;;2.47;;
70796;SDS011;59398;52.170;5.386;2022-09-09T12:11:32;6.95;;;2.40;;
70796;SDS011;59398;52.170;5.386;2022-09-09T12:14:00;7.05;;;2.25;;
70796;SDS011;59398;52.170;5.386;2022-09-09T12:16:34;9.52;;;2.38;;
70796;SDS011;59398;52.170;5.386;2022-09-09T12:19:04;5.45;;;2.03;;
70796;SDS011;59398;52.170;5.386;2022-09-09T12:24:49;5.75;;;1.88;;
70796;SDS011;59398;52.170;5.386;2022-09-09T12:27:24;8.27;;;2.17;;
70796;SDS011;59398;52.170;5.386;2022-09-09T12:30:03;8.07;;;2.20;;
70796;SDS011;59398;52.170;5.386;2022-09-09T12:32:35;7.82;;;2.10;;
70796;SDS011;59398;52.170;5.386;2022-09-09T12:35:04;8.43;;;1.92;;
70796;SDS011;59398;52.170;5.386;2022-09-09T12:37:51;5.13;;;2.00;;
70796;SDS011;59398;52.170;5.386;2022-09-09T12:40:24;8.23;;;2.40;;
70796;SDS011;59398;52.170;5.386;2022-09-09T12:42:54;10.52;;;2.33;;
70796;SDS011;59398;52.170;5.386;2022-09-09T12:45:28;8.48;;;2.30;;
70796;SDS011;59398;52.170;5.386;2022-09-09T12:48:00;7.03;;;2.50;;
70796;SDS011;59398;52.170;5.386;2022-09-09T12:50:37;9.00;;;2.45;;
70796;SDS011;59398;52.170;5.386;2022-09-09T12:53:11;5.78;;;2.03;;
70796;SDS011;59398;52.170;5.386;2022-09-09T12:55:56;7.32;;;2.30;;
70796;SDS011;59398;52.170;5.386;2022-09-09T12:58:25;7.03;;;2.00;;
70796;SDS011;59398;52.170;5.386;2022-09-09T13:00:55;7.97;;;2.30;;
70796;SDS011;59398;52.170;5.386;2022-09-09T13:03:23;7.38;;;2.38;;
70796;SDS011;59398;52.170;5.386;2022-09-09T13:06:10;8.88;;;2.50;;
70796;SDS011;59398;52.170;5.386;2022-09-09T13:08:40;8.05;;;2.30;;
70796;SDS011;59398;52.170;5.386;2022-09-09T13:11:09;8.88;;;2.33;;
70796;SDS011;59398;52.170;5.386;2022-09-09T13:13:42;5.10;;;2.28;;
70796;SDS011;59398;52.170;5.386;2022-09-09T13:16:20;7.82;;;2.33;;
70796;SDS011;59398;52.170;5.386;2022-09-09T13:18:47;7.55;;;2.10;;
70796;SDS011;59398;52.170;5.386;2022-09-09T13:21:15;9.20;;;2.10;;
70796;SDS011;59398;52.170;5.386;2022-09-09T13:23:47;8.90;;;2.22;;
70796;SDS011;59398;52.170;5.386;2022-09-09T13:26:20;7.90;;;2.50;;
70796;SDS011;59398;52.170;5.386;2022-09-09T13:28:53;7.38;;;2.45;;
70796;SDS011;59398;52.170;5.386;2022-09-09T13:31:27;5.75;;;2.15;;
70796;SDS011;59398;52.170;5.386;2022-09-09T13:33:56;9.07;;;2.10;;
70796;SDS011;59398;52.170;5.386;2022-09-09T13:36:30;6.93;;;2.20;;
70796;SDS011;59398;52.170;5.386;2022-09-09T13:38:59;7.20;;;2.42;;
70796;SDS011;59398;52.170;5.386;2022-09-09T13:41:33;7.50;;;2.30;;
70796;SDS011;59398;52.170;5.386;2022-09-09T13:44:02;7.38;;;2.10;;
70796;SDS011;59398;52.170;5.386;2022-09-09T13:46:34;8.57;;;2.25;;
70796;SDS011;59398;52.170;5.386;2022-09-09T13:49:18;7.68;;;2.30;;
70796;SDS011;59398;52.170;5.386;2022-09-09T13:51:48;6.95;;;2.10;;
70796;SDS011;59398;52.170;5.386;2022-09-09T13:54:29;6.43;;;2.50;;
70796;SDS011;59398;52.170;5.386;2022-09-09T13:56:57;7.60;;;2.70;;
70796;SDS011;59398;52.170;5.386;2022-09-09T13:59:23;7.90;;;2.30;;
70796;SDS011;59398;52.170;5.386;2022-09-09T14:02:12;6.63;;;2.17;;
70796;SDS011;59398;52.170;5.386;2022-09-09T14:04:42;7.15;;;2.40;;
70796;SDS011;59398;52.170;5.386;2022-09-09T14:07:13;10.80;;;2.33;;
70796;SDS011;59398;52.170;5.386;2022-09-09T14:09:42;7.88;;;2.17;;
70796;SDS011;59398;52.170;5.386;2022-09-09T14:12:10;7.93;;;2.40;;
70796;SDS011;59398;52.170;5.386;2022-09-09T14:17:05;6.35;;;1.98;;
70796;SDS011;59398;52.170;5.386;2022-09-09T14:19:33;7.47;;;2.13;;
70796;SDS011;59398;52.170;5.386;2022-09-09T14:22:00;8.45;;;2.60;;
70796;SDS011;59398;52.170;5.386;2022-09-09T14:24:27;7.80;;;2.40;;
70796;SDS011;59398;52.170;5.386;2022-09-09T14:26:54;7.75;;;2.40;;
70796;SDS011;59398;52.170;5.386;2022-09-09T14:29:21;7.53;;;2.25;;
70796;SDS011;59398;52.170;5.386;2022-09-09T14:31:48;7.53;;;2.40;;
70796;SDS011;59398;52.170;5.386;2022-09-09T14:34:15;8.02;;;2.30;;
70796;SDS011;59398;52.170;5.386;2022-09-09T14:36:42;6.78;;;2.38;;
70796;SDS011;59398;52.170;5.386;2022-09-09T14:39:15;11.73;;;2.50;;
70796;SDS011;59398;52.170;5.386;2022-09-09T14:41:46;7.70;;;2.55;;
70796;SDS011;59398;52.170;5.386;2022-09-09T14:44:16;10.00;;;2.60;;
70796;SDS011;59398;52.170;5.386;2022-09-09T14:46:45;8.75;;;2.50;;
70796;SDS011;59398;52.170;5.386;2022-09-09T14:49:12;6.10;;;2.20;;
70796;SDS011;59398;52.170;5.386;2022-09-09T14:51:39;9.18;;;2.70;;
70796;SDS011;59398;52.170;5.386;2022-09-09T14:54:06;6.80;;;2.50;;
70796;SDS011;59398;52.170;5.386;2022-09-09T14:56:33;7.25;;;2.50;;
70796;SDS011;59398;52.170;5.386;2022-09-09T14:59:04;7.20;;;2.63;;
70796;SDS011;59398;52.170;5.386;2022-09-09T15:01:31;8.88;;;3.08;;
70796;SDS011;59398;52.170;5.386;2022-09-09T15:03:59;12.55;;;3.55;;
70796;SDS011;59398;52.170;5.386;2022-09-09T15:06:28;7.55;;;2.95;;
70796;SDS011;59398;52.170;5.386;2022-09-09T15:08:59;8.02;;;3.03;;
70796;SDS011;59398;52.170;5.386;2022-09-09T15:11:27;9.02;;;2.78;;
70796;SDS011;59398;52.170;5.386;2022-09-09T15:13:57;7.65;;;2.80;;
70796;SDS011;59398;52.170;5.386;2022-09-09T15:16:25;8.50;;;2.90;;
70796;SDS011;59398;52.170;5.386;2022-09-09T15:18:55;7.70;;;2.95;;
70796;SDS011;59398;52.170;5.386;2022-09-09T15:21:25;7.00;;;2.50;;
70796;SDS011;59398;52.170;5.386;2022-09-09T15:23:54;7.50;;;2.22;;
70796;SDS011;59398;52.170;5.386;2022-09-09T15:26:22;6.55;;;1.98;;
70796;SDS011;59398;52.170;5.386;2022-09-09T15:28:49;5.82;;;2.25;;
70796;SDS011;59398;52.170;5.386;2022-09-09T15:31:18;4.88;;;1.70;;
70796;SDS011;59398;52.170;5.386;2022-09-09T15:33:47;7.95;;;2.00;;
70796;SDS011;59398;52.170;5.386;2022-09-09T15:36:23;5.43;;;1.60;;
70796;SDS011;59398;52.170;5.386;2022-09-09T15:38:51;4.45;;;1.67;;
70796;SDS011;59398;52.170;5.386;2022-09-09T15:41:20;3.95;;;1.55;;
70796;SDS011;59398;52.170;5.386;2022-09-09T15:43:49;3.90;;;1.58;;
70796;SDS011;59398;52.170;5.386;2022-09-09T15:48:44;4.60;;;1.50;;
70796;SDS011;59398;52.170;5.386;2022-09-09T15:51:14;4.32;;;1.55;;
70796;SDS011;59398;52.170;5.386;2022-09-09T15:54:01;5.45;;;1.60;;
70796;SDS011;59398;52.170;5.386;2022-09-09T15:56:30;4.60;;;1.60;;
70796;SDS011;59398;52.170;5.386;2022-09-09T15:58:59;5.63;;;1.63;;
70796;SDS011;59398;52.170;5.386;2022-09-09T16:03:57;3.30;;;1.38;;
70796;SDS011;59398;52.170;5.386;2022-09-09T16:06:26;5.45;;;1.80;;
70796;SDS011;59398;52.170;5.386;2022-09-09T16:08:55;7.35;;;1.75;;
70796;SDS011;59398;52.170;5.386;2022-09-09T16:13:53;4.47;;;1.80;;
70796;SDS011;59398;52.170;5.386;2022-09-09T16:16:23;4.35;;;1.70;;
70796;SDS011;59398;52.170;5.386;2022-09-09T16:18:53;6.20;;;1.90;;
70796;SDS011;59398;52.170;5.386;2022-09-09T16:21:27;6.03;;;1.88;;
70796;SDS011;59398;52.170;5.386;2022-09-09T16:23:56;6.30;;;1.90;;
70796;SDS011;59398;52.170;5.386;2022-09-09T16:26:29;8.30;;;2.10;;
70796;SDS011;59398;52.170;5.386;2022-09-09T16:28:57;6.38;;;1.83;;
70796;SDS011;59398;52.170;5.386;2022-09-09T16:31:26;4.20;;;1.58;;
70796;SDS011;59398;52.170;5.386;2022-09-09T16:33:54;4.80;;;1.75;;
70796;SDS011;59398;52.170;5.386;2022-09-09T16:36:21;4.45;;;1.70;;
70796;SDS011;59398;52.170;5.386;2022-09-09T16:38:53;7.03;;;1.88;;
70796;SDS011;59398;52.170;5.386;2022-09-09T16:41:24;5.88;;;1.73;;
70796;SDS011;59398;52.170;5.386;2022-09-09T16:43:55;4.75;;;1.90;;
70796;SDS011;59398;52.170;5.386;2022-09-09T16:46:26;5.00;;;1.75;;
70796;SDS011;59398;52.170;5.386;2022-09-09T16:48:58;4.97;;;1.90;;
70796;SDS011;59398;52.170;5.386;2022-09-09T16:51:29;4.43;;;1.77;;
70796;SDS011;59398;52.170;5.386;2022-09-09T16:53:59;7.10;;;1.98;;
70796;SDS011;59398;52.170;5.386;2022-09-09T16:56:29;5.72;;;1.70;;
70796;SDS011;59398;52.170;5.386;2022-09-09T16:59:00;5.20;;;1.73;;
70796;SDS011;59398;52.170;5.386;2022-09-09T17:01:29;7.18;;;1.90;;
70796;SDS011;59398;52.170;5.386;2022-09-09T17:04:02;6.13;;;2.10;;
70796;SDS011;59398;52.170;5.386;2022-09-09T17:06:31;5.55;;;1.73;;
70796;SDS011;59398;52.170;5.386;2022-09-09T17:09:04;4.97;;;1.90;;
70796;SDS011;59398;52.170;5.386;2022-09-09T17:11:36;6.10;;;2.30;;
70796;SDS011;59398;52.170;5.386;2022-09-09T17:14:06;8.38;;;2.35;;
70796;SDS011;59398;52.170;5.386;2022-09-09T17:16:35;7.72;;;2.50;;
70796;SDS011;59398;52.170;5.386;2022-09-09T17:19:03;5.40;;;2.00;;
70796;SDS011;59398;52.170;5.386;2022-09-09T17:21:30;7.20;;;2.00;;
70796;SDS011;59398;52.170;5.386;2022-09-09T17:23:59;8.10;;;2.28;;
70796;SDS011;59398;52.170;5.386;2022-09-09T17:26:28;7.03;;;2.22;;